Time;durP1;ratioP1;P1;durP2;ratioP2;P2;SDS_P1;SDS_P2;PMS_P1;PMS_P2;Temp;Humidity;BMP_temperature;BMP_pressure;BME280_temperature;BME280_humidity;BME280_pressure;Samples;Min_cycle;Max_cycle;Signal;HPM_P1;HPM_P2
2023/06/03 00:02:04;;;;;;;10.82;5.50;;;;;;;13.19;79.98;101203.63;4920923;29;20087;-80
2023/06/03 00:04:31;;;;;;;11.07;6.03;;;;;;;13.20;80.31;101212.34;4920996;29;20052;-79
2023/06/03 00:06:58;;;;;;;11.07;6.57;;;;;;;13.14;80.56;101207.69;4921302;29;20087;-81
2023/06/03 00:09:26;;;;;;;13.25;5.82;;;;;;;13.08;80.37;101213.56;4919698;29;20048;-79
2023/06/03 00:11:53;;;;;;;11.70;6.50;;;;;;;13.03;80.50;101211.41;4920360;29;20060;-79
2023/06/03 00:14:19;;;;;;;9.57;5.40;;;;;;;13.03;81.03;101210.59;4922860;29;20139;-77
2023/06/03 00:16:47;;;;;;;10.07;5.97;;;;;;;13.01;80.91;101207.28;4921694;29;20059;-79
2023/06/03 00:19:15;;;;;;;9.20;5.97;;;;;;;12.96;81.20;101208.59;4922284;29;20048;-81
2023/06/03 00:21:45;;;;;;;10.20;5.93;;;;;;;12.92;81.47;101209.06;4919779;29;20448;-80
2023/06/03 00:24:11;;;;;;;15.50;6.30;;;;;;;12.82;81.71;101209.16;4920030;29;20477;-79
2023/06/03 00:26:39;;;;;;;9.63;5.82;;;;;;;12.79;81.99;101214.75;4922088;29;20087;-81
2023/06/03 00:29:06;;;;;;;10.27;6.03;;;;;;;12.77;82.26;101215.88;4923682;29;20104;-81
2023/06/03 00:31:33;;;;;;;10.00;5.97;;;;;;;12.75;82.37;101210.81;4922599;29;20116;-78
2023/06/03 00:33:59;;;;;;;8.82;5.88;;;;;;;12.69;82.58;101207.97;4922469;29;20116;-79
2023/06/03 00:36:26;;;;;;;9.82;6.03;;;;;;;12.64;82.70;101208.44;4922217;29;20086;-80
2023/06/03 00:38:52;;;;;;;12.80;5.68;;;;;;;12.61;82.68;101204.31;4923931;29;20469;-79
2023/06/03 00:41:19;;;;;;;9.52;5.85;;;;;;;12.61;82.87;101212.19;4927167;29;20139;-81
2023/06/03 00:43:47;;;;;;;12.77;6.22;;;;;;;12.59;82.97;101213.31;4924872;29;20496;-80
2023/06/03 00:46:15;;;;;;;9.98;5.88;;;;;;;12.55;83.16;101201.47;4925846;29;20603;-81
2023/06/03 00:48:42;;;;;;;9.25;6.18;;;;;;;12.53;83.62;101208.69;4925381;29;20127;-78
2023/06/03 00:51:09;;;;;;;7.68;6.00;;;;;;;12.49;83.67;101207.34;4926223;29;20088;-82
2023/06/03 00:53:36;;;;;;;13.27;6.15;;;;;;;12.48;83.83;101209.16;4927214;29;20143;-79
2023/06/03 00:56:03;;;;;;;9.55;6.30;;;;;;;12.43;84.03;101213.22;4927175;29;20075;-80
2023/06/03 00:58:31;;;;;;;10.27;5.85;;;;;;;12.38;84.37;101199.72;4928222;29;20087;-79
2023/06/03 01:01:00;;;;;;;11.80;6.70;;;;;;;12.31;84.49;101207.38;4927343;29;20048;-81
2023/06/03 01:03:26;;;;;;;10.38;6.13;;;;;;;12.22;84.86;101209.16;4924718;29;20138;-80
2023/06/03 01:06:04;;;;;;;7.95;6.35;;;;;;;12.08;85.20;101199.19;4924657;29;20484;-79
2023/06/03 01:08:39;;;;;;;12.38;6.72;;;;;;;11.97;85.91;101202.03;4924479;29;20075;-80
2023/06/03 01:11:13;;;;;;;10.95;6.63;;;;;;;11.93;86.24;101206.75;4924432;29;20528;-80
2023/06/03 01:13:45;;;;;;;9.45;6.13;;;;;;;11.86;86.59;101202.25;4923568;29;20075;-79
2023/06/03 01:16:16;;;;;;;12.25;6.50;;;;;;;11.77;86.82;101201.41;4923066;29;20048;-80
2023/06/03 01:18:46;;;;;;;10.70;6.38;;;;;;;11.74;87.05;101203.47;4923862;29;20109;-80
2023/06/03 01:21:13;;;;;;;10.15;6.63;;;;;;;11.67;87.14;101211.09;4924864;29;20108;-78
2023/06/03 01:23:44;;;;;;;9.02;6.57;;;;;;;11.57;87.59;101205.91;4924363;29;20052;-80
2023/06/03 01:26:12;;;;;;;13.57;6.78;;;;;;;11.59;87.72;101206.59;4923170;29;20134;-80
2023/06/03 01:28:39;;;;;;;9.15;6.47;;;;;;;11.53;88.09;101204.56;4925867;29;20056;-80
2023/06/03 01:31:07;;;;;;;14.23;7.35;;;;;;;11.48;88.33;101198.94;4925749;29;20123;-81
2023/06/03 01:33:36;;;;;;;13.57;6.63;;;;;;;11.44;88.36;101199.38;4926237;29;20481;-81
2023/06/03 01:36:05;;;;;;;11.43;6.85;;;;;;;11.47;88.62;101201.69;4925667;29;20103;-83
2023/06/03 01:38:32;;;;;;;9.82;6.13;;;;;;;11.37;89.12;101193.06;4924265;29;20078;-82
2023/06/03 01:41:01;;;;;;;11.73;6.90;;;;;;;11.29;89.07;101196.44;4922833;29;20465;-80
2023/06/03 01:43:28;;;;;;;13.05;6.35;;;;;;;11.25;89.20;101203.78;4922486;29;20060;-82
2023/06/03 01:45:57;;;;;;;13.70;6.43;;;;;;;11.24;89.35;101198.69;4925751;29;20123;-81
2023/06/03 01:48:24;;;;;;;9.65;6.60;;;;;;;11.27;89.26;101203.63;4922488;29;20052;-79
2023/06/03 01:50:51;;;;;;;12.65;6.65;;;;;;;11.17;89.23;101195.81;4921691;29;20099;-81
2023/06/03 01:53:18;;;;;;;11.82;6.68;;;;;;;11.25;89.42;101208.19;4923811;29;20090;-81
2023/06/03 01:55:46;;;;;;;15.05;6.93;;;;;;;11.29;89.58;101206.94;4924863;29;20083;-80
2023/06/03 01:58:16;;;;;;;13.00;6.15;;;;;;;11.30;89.31;101206.78;4925216;29;20067;-81
2023/06/03 02:00:43;;;;;;;8.90;6.30;;;;;;;11.35;89.25;101211.56;4924441;29;20151;-80
2023/06/03 02:03:10;;;;;;;8.57;6.13;;;;;;;11.33;89.22;101208.28;4924382;29;20091;-80
2023/06/03 02:05:36;;;;;;;13.05;6.70;;;;;;;11.29;89.30;101204.31;4923955;29;20048;-80
2023/06/03 02:08:03;;;;;;;10.73;6.68;;;;;;;11.22;89.57;101200.63;4922780;29;20079;-80
2023/06/03 02:10:30;;;;;;;10.07;6.30;;;;;;;11.21;89.57;101206.84;4923041;29;20052;-81
2023/06/03 02:12:58;;;;;;;10.85;6.97;;;;;;;11.17;89.62;101203.69;4923209;29;20531;-81
2023/06/03 02:15:26;;;;;;;14.38;6.32;;;;;;;11.15;89.97;101202.16;4923359;29;20064;-81
2023/06/03 02:17:55;;;;;;;10.85;6.93;;;;;;;11.08;90.11;101204.53;4923450;29;20569;-81
2023/06/03 02:20:31;;;;;;;11.63;7.18;;;;;;;11.01;90.46;101197.41;4923660;29;20210;-82
2023/06/03 02:22:58;;;;;;;12.48;6.88;;;;;;;10.99;90.61;101215.88;4915857;29;20131;-80
2023/06/03 02:25:25;;;;;;;12.82;6.95;;;;;;;10.95;90.41;101210.09;4922389;29;20473;-80
2023/06/03 02:27:54;;;;;;;12.77;6.70;;;;;;;10.94;90.81;101213.69;4913470;29;20132;-79
2023/06/03 02:30:21;;;;;;;13.70;7.47;;;;;;;11.01;90.68;101205.25;4923837;29;20076;-81
2023/06/03 02:32:49;;;;;;;10.82;6.57;;;;;;;10.95;91.01;101207.50;4922290;29;20080;-80
2023/06/03 02:35:16;;;;;;;8.40;6.15;;;;;;;10.96;90.72;101217.00;4922160;29;20429;-81
2023/06/03 02:37:43;;;;;;;13.00;6.88;;;;;;;10.91;90.81;101216.59;4920884;29;20158;-80
2023/06/03 02:40:11;;;;;;;10.68;6.72;;;;;;;10.90;90.74;101214.13;4921300;29;20079;-81
2023/06/03 02:42:38;;;;;;;10.05;6.72;;;;;;;10.83;91.21;101221.75;4921822;29;20111;-80
2023/06/03 02:45:06;;;;;;;11.73;6.88;;;;;;;10.81;90.99;101220.25;4920018;29;20169;-79
2023/06/03 02:47:32;;;;;;;12.73;6.55;;;;;;;10.81;91.23;101213.22;4921090;29;20115;-79
2023/06/03 02:50:00;;;;;;;11.30;6.30;;;;;;;10.85;91.26;101217.19;4924387;29;20132;-80
2023/06/03 02:52:27;;;;;;;10.82;6.57;;;;;;;10.83;91.73;101221.75;4924855;29;20580;-80
2023/06/03 02:54:54;;;;;;;10.73;6.43;;;;;;;10.82;91.20;101229.75;4924953;29;20095;-80
2023/06/03 02:57:22;;;;;;;15.23;7.00;;;;;;;10.74;91.33;101225.22;4924690;29;20457;-78
2023/06/03 02:59:49;;;;;;;15.52;7.72;;;;;;;10.80;91.58;101232.50;4927371;29;20092;-79
2023/06/03 03:02:19;;;;;;;10.70;7.20;;;;;;;10.79;91.78;101227.41;4926093;29;20076;-80
2023/06/03 03:04:45;;;;;;;9.68;6.40;;;;;;;10.70;91.44;101226.47;4914542;29;20092;-80
2023/06/03 03:07:13;;;;;;;13.85;7.15;;;;;;;10.63;91.25;101233.22;4919148;29;20060;-80
2023/06/03 03:09:41;;;;;;;14.35;6.50;;;;;;;10.60;91.25;101230.91;4920148;29;20139;-79
2023/06/03 03:12:09;;;;;;;7.80;6.28;;;;;;;10.59;91.51;101237.09;4918393;29;20116;-81
2023/06/03 03:14:35;;;;;;;10.32;6.68;;;;;;;10.53;92.00;101245.50;4919182;29;20492;-80
2023/06/03 03:17:02;;;;;;;10.52;6.53;;;;;;;10.54;92.21;101249.78;4915726;29;20466;-81
2023/06/03 03:19:29;;;;;;;12.73;7.13;;;;;;;10.52;92.15;101252.53;4920154;29;20464;-80
2023/06/03 03:21:56;;;;;;;10.93;7.20;;;;;;;10.48;92.21;101247.72;4924506;29;20051;-81
2023/06/03 03:24:26;;;;;;;12.18;6.38;;;;;;;10.48;91.98;101251.16;4913964;29;20491;-81
2023/06/03 03:26:52;;;;;;;12.10;6.72;;;;;;;10.46;92.04;101249.66;4921953;29;20063;-81
2023/06/03 03:29:23;;;;;;;20.90;7.63;;;;;;;10.36;91.96;101241.00;4919000;29;20071;-79
2023/06/03 03:31:53;;;;;;;16.10;7.35;;;;;;;10.42;92.09;101246.47;4910982;29;20062;-77
2023/06/03 03:34:21;;;;;;;11.50;7.45;;;;;;;10.41;92.18;101246.63;4918994;29;20052;-80
2023/06/03 03:36:48;;;;;;;14.48;7.80;;;;;;;10.35;92.14;101247.22;4911198;29;20087;-79
2023/06/03 03:39:15;;;;;;;13.48;7.30;;;;;;;10.35;92.49;101252.44;4918466;29;20112;-79
2023/06/03 03:41:44;;;;;;;12.48;6.65;;;;;;;10.33;92.54;101259.59;4918061;29;20055;-79
2023/06/03 03:44:12;;;;;;;13.70;6.97;;;;;;;10.33;92.06;101254.38;4912889;29;20139;-79
2023/06/03 03:46:41;;;;;;;12.95;8.07;;;;;;;10.38;91.94;101257.41;4921083;29;20083;-80
2023/06/03 03:49:10;;;;;;;14.80;6.90;;;;;;;10.36;91.98;101251.47;4918762;29;20084;-78
2023/06/03 03:51:37;;;;;;;12.88;7.32;;;;;;;10.41;91.88;101247.44;4918731;29;20130;-78
2023/06/03 03:54:04;;;;;;;12.10;6.18;;;;;;;10.46;91.91;101249.66;4918315;29;20142;-79
2023/06/03 03:56:30;;;;;;;15.75;6.72;;;;;;;10.50;91.67;101245.78;4917191;29;20052;-79
2023/06/03 03:58:59;;;;;;;11.23;6.53;;;;;;;10.74;91.47;101238.31;4913938;29;20139;-82
2023/06/03 04:01:28;;;;;;;11.77;6.93;;;;;;;11.21;90.80;101238.25;4920739;29;20138;-81
2023/06/03 04:03:55;;;;;;;10.38;6.13;;;;;;;11.93;89.29;101247.91;4920927;29;20051;-82
2023/06/03 04:06:30;;;;;;;11.23;6.10;;;;;;;12.59;86.30;101240.41;4920750;29;20060;-81
2023/06/03 04:08:58;;;;;;;11.68;6.30;;;;;;;13.12;83.21;101220.97;4920747;29;20052;-81
2023/06/03 04:11:27;;;;;;;7.63;5.78;;;;;;;13.53;80.71;101221.97;4920196;29;20506;-81
2023/06/03 04:13:54;;;;;;;8.65;5.70;;;;;;;13.85;79.07;101234.34;4914813;29;20048;-80
2023/06/03 04:16:56;;;;;;;9.05;5.90;;;;;;;14.04;77.84;101243.75;4917823;29;20571;-79
2023/06/03 04:19:27;;;;;;;11.30;6.00;;;;;;;13.99;76.99;101225.00;4857671;29;20132;-81
2023/06/03 04:21:54;;;;;;;11.20;5.70;;;;;;;14.45;76.38;101235.84;4906645;29;20080;-81
2023/06/03 04:24:20;;;;;;;9.95;5.75;;;;;;;14.87;74.45;101222.44;4920624;29;20116;-80
2023/06/03 04:26:47;;;;;;;10.85;6.10;;;;;;;15.35;72.89;101216.13;4921769;29;20457;-81
2023/06/03 04:29:14;;;;;;;7.57;5.18;;;;;;;15.46;72.07;101223.66;4922224;29;20135;-82
2023/06/03 04:31:40;;;;;;;12.23;6.07;;;;;;;15.12;72.45;101217.91;4922486;29;20135;-82
2023/06/03 04:34:11;;;;;;;12.82;5.60;;;;;;;14.77;73.55;101221.78;4921024;29;20135;-83
2023/06/03 04:36:37;;;;;;;13.73;5.75;;;;;;;14.40;74.16;101219.69;4921114;29;20140;-82
2023/06/03 04:39:05;;;;;;;11.15;5.82;;;;;;;14.22;74.83;101219.88;4920289;29;20111;-81
2023/06/03 04:41:32;;;;;;;8.50;5.50;;;;;;;14.64;74.86;101234.69;4921138;29;20512;-81
2023/06/03 04:43:59;;;;;;;7.75;5.63;;;;;;;15.18;72.84;101225.91;4922520;29;20091;-81
2023/06/03 04:46:29;;;;;;;18.85;6.20;;;;;;;15.22;71.86;101216.69;4934723;29;20103;-80
2023/06/03 04:48:57;;;;;;;16.65;5.95;;;;;;;15.19;72.10;101208.28;4936062;29;20052;-80
2023/06/03 04:51:27;;;;;;;15.85;5.85;;;;;;;14.83;72.39;101219.31;4929752;29;20044;-78
2023/06/03 04:53:56;;;;;;;14.50;5.90;;;;;;;14.97;72.75;101222.25;4918842;29;20055;-78
2023/06/03 04:56:24;;;;;;;9.77;5.95;;;;;;;14.85;72.57;101222.59;4925901;29;20052;-78
2023/06/03 04:58:54;;;;;;;9.68;5.13;;;;;;;15.03;72.56;101232.09;4929827;29;20117;-80
2023/06/03 05:01:21;;;;;;;9.43;6.18;;;;;;;15.12;71.60;101225.81;4930352;29;20062;-80
2023/06/03 05:03:48;;;;;;;11.80;7.13;;;;;;;15.25;71.51;101229.53;4920167;29;20104;-81
2023/06/03 05:06:14;;;;;;;12.90;5.90;;;;;;;14.97;71.99;101224.88;4919499;29;20056;-81
2023/06/03 05:08:42;;;;;;;11.82;5.55;;;;;;;15.45;71.51;101219.38;4920311;29;20084;-81
2023/06/03 05:11:09;;;;;;;9.60;5.55;;;;;;;15.73;71.07;101221.53;4920511;29;20058;-81
2023/06/03 05:13:36;;;;;;;8.38;5.40;;;;;;;15.97;69.12;101223.19;4920911;29;20055;-81
2023/06/03 05:16:03;;;;;;;12.57;5.30;;;;;;;16.54;67.64;101220.88;4920693;29;20584;-77
2023/06/03 05:18:30;;;;;;;10.57;4.97;;;;;;;16.70;65.97;101204.84;4921057;29;20076;-82
2023/06/03 05:20:56;;;;;;;8.48;4.78;;;;;;;17.41;64.00;101202.50;4933726;29;20059;-80
2023/06/03 05:23:23;;;;;;;6.63;4.20;;;;;;;17.52;60.59;101200.16;4932090;29;20067;-82
2023/06/03 05:25:51;;;;;;;8.50;4.00;;;;;;;19.12;57.35;101200.38;4930853;29;20102;-81
2023/06/03 05:28:17;;;;;;;8.77;4.07;;;;;;;19.35;52.93;101182.28;4924385;29;20083;-83
2023/06/03 05:30:44;;;;;;;7.47;3.47;;;;;;;19.74;50.97;101184.22;4926405;29;20108;-83
2023/06/03 05:33:29;;;;;;;6.15;3.20;;;;;;;20.57;48.71;101181.13;4925637;29;20055;-80
2023/06/03 05:35:57;;;;;;;7.00;3.30;;;;;;;20.00;48.62;101183.41;4926734;29;20429;-81
2023/06/03 05:38:24;;;;;;;4.53;3.13;;;;;;;20.01;48.55;101174.41;4927132;29;20060;-83
2023/06/03 05:41:03;;;;;;;5.25;3.38;;;;;;;18.79;49.71;101187.78;4922009;29;20052;-81
2023/06/03 05:43:34;;;;;;;6.78;3.40;;;;;;;19.38;49.49;101184.50;4928224;29;20060;-83
2023/06/03 05:53:03;;;;;;;5.28;3.35;;;;;;;19.07;47.97;101177.09;4928619;29;20052;-81
2023/06/03 05:59:05;;;;;;;8.45;3.33;;;;;;;20.74;44.71;101180.47;4924904;29;20052;-81
2023/06/03 06:01:35;;;;;;;7.15;2.67;;;;;;;20.47;45.21;101171.75;4922046;29;20063;-81
2023/06/03 06:04:02;;;;;;;5.72;3.03;;;;;;;21.10;43.78;101176.44;4915175;29;20048;-80
2023/06/03 06:06:28;;;;;;;6.70;3.20;;;;;;;21.62;42.96;101179.88;4921025;29;20063;-79
2023/06/03 06:08:55;;;;;;;5.65;2.90;;;;;;;21.10;43.93;101171.94;4924442;29;20107;-81
2023/06/03 06:11:21;;;;;;;6.63;2.70;;;;;;;21.26;43.59;101173.34;4925185;29;20076;-82
2023/06/03 06:13:48;;;;;;;4.80;2.95;;;;;;;21.20;43.14;101172.31;4926945;29;20076;-82
2023/06/03 06:16:15;;;;;;;4.07;2.90;;;;;;;21.72;42.56;101177.53;4920086;29;20064;-81
2023/06/03 06:18:47;;;;;;;5.45;2.72;;;;;;;21.80;42.17;101167.41;4925100;29;20051;-81
2023/06/03 06:21:15;;;;;;;5.40;3.08;;;;;;;21.49;42.50;101176.25;4929612;29;20047;-82
2023/06/03 06:23:44;;;;;;;8.35;2.78;;;;;;;21.45;42.14;101168.91;4929062;29;20052;-83
2023/06/03 06:26:26;;;;;;;4.55;2.63;;;;;;;21.35;42.65;101177.34;4927065;29;20052;-80
2023/06/03 06:32:33;;;;;;;5.25;2.53;;;;;;;22.17;41.04;101173.72;4884744;29;20052;-81
2023/06/03 06:35:02;;;;;;;5.90;2.92;;;;;;;22.69;40.96;101186.69;4915134;29;20044;-78
2023/06/03 06:37:28;;;;;;;4.10;2.95;;;;;;;23.75;40.20;101186.16;4921681;29;20056;-80
2023/06/03 06:39:56;;;;;;;4.28;2.60;;;;;;;23.25;40.28;101194.47;4921100;29;20051;-79
2023/06/03 06:42:40;;;;;;;5.78;2.67;;;;;;;22.51;40.34;101185.69;4921833;29;20053;-79
2023/06/03 06:45:15;;;;;;;6.13;3.08;;;;;;;24.24;40.12;101194.81;4921029;29;20131;-79
2023/06/03 06:47:42;;;;;;;4.78;2.42;;;;;;;22.99;39.70;101192.97;4920911;29;20115;-79
2023/06/03 06:50:29;;;;;;;5.78;2.80;;;;;;;23.98;39.18;101191.56;4919833;29;20123;-79
2023/06/03 06:52:56;;;;;;;6.28;3.00;;;;;;;24.18;39.55;101196.56;4914044;29;20083;-80
2023/06/03 06:55:41;;;;;;;6.07;2.85;;;;;;;24.33;38.38;101196.13;4922314;29;20107;-80
2023/06/03 06:58:09;;;;;;;4.88;2.83;;;;;;;24.21;38.22;101189.94;4920779;29;20056;-78
2023/06/03 07:00:36;;;;;;;5.97;2.92;;;;;;;22.99;39.16;101184.13;4917991;29;20045;-79
2023/06/03 07:03:03;;;;;;;4.85;2.85;;;;;;;24.50;39.01;101199.72;4921689;29;20058;-79
2023/06/03 07:05:31;;;;;;;7.53;2.95;;;;;;;22.85;39.71;101199.47;4919967;29;20060;-77
2023/06/03 07:07:58;;;;;;;4.25;2.85;;;;;;;22.82;39.81;101182.06;4921508;29;20103;-80
2023/06/03 07:10:25;;;;;;;4.63;2.65;;;;;;;22.82;40.39;101182.06;4919264;29;20086;-80
2023/06/03 07:12:53;;;;;;;5.88;2.67;;;;;;;23.62;39.61;101181.06;4916702;29;20056;-81
2023/06/03 07:15:20;;;;;;;6.72;3.10;;;;;;;24.25;39.06;101194.63;4919970;29;20103;-79
2023/06/03 07:17:49;;;;;;;7.22;3.60;;;;;;;23.60;39.56;101188.47;4922297;29;20090;-78
2023/06/03 07:20:20;;;;;;;7.20;3.00;;;;;;;23.92;38.72;101176.44;4920297;29;20078;-78
2023/06/03 07:22:48;;;;;;;6.25;3.80;;;;;;;23.01;39.92;101174.88;4919356;29;20055;-78
2023/06/03 07:25:30;;;;;;;5.55;3.75;;;;;;;24.32;39.00;101191.81;4920736;29;20100;-78
2023/06/03 07:27:57;;;;;;;7.75;3.65;;;;;;;24.14;38.42;101182.84;4912681;29;20501;-77
2023/06/03 07:30:24;;;;;;;6.15;2.88;;;;;;;23.18;39.16;101177.72;4920631;29;20139;-79
2023/06/03 07:32:53;;;;;;;9.07;2.83;;;;;;;23.00;40.44;101167.09;4912936;29;20084;-78
2023/06/03 07:35:20;;;;;;;5.80;3.17;;;;;;;23.58;40.65;101175.34;4920741;29;20056;-79
2023/06/03 07:37:49;;;;;;;7.55;3.00;;;;;;;24.25;39.55;101175.91;4921605;29;20055;-79
2023/06/03 07:40:16;;;;;;;7.10;2.88;;;;;;;24.95;39.67;101175.78;4922440;29;20071;-78
2023/06/03 07:42:45;;;;;;;6.07;2.92;;;;;;;23.58;40.38;101174.53;4921754;29;20512;-80
2023/06/03 07:45:14;;;;;;;4.47;3.08;;;;;;;23.54;40.60;101178.69;4921886;29;20052;-77
2023/06/03 07:47:41;;;;;;;5.88;3.47;;;;;;;24.52;39.79;101180.78;4919655;29;20099;-79
2023/06/03 07:50:23;;;;;;;6.32;3.00;;;;;;;25.31;38.98;101169.25;4919606;29;20056;-79
2023/06/03 07:52:59;;;;;;;4.90;3.17;;;;;;;25.57;38.58;101170.50;4920919;29;20518;-79
2023/06/03 07:55:26;;;;;;;11.07;3.20;;;;;;;25.34;37.97;101176.81;4920459;29;20084;-78
2023/06/03 07:57:52;;;;;;;5.03;2.88;;;;;;;23.03;40.38;101166.63;4912195;29;20044;-79
2023/06/03 08:00:19;;;;;;;6.75;3.10;;;;;;;25.26;39.57;101173.69;4919612;29;20064;-79
2023/06/03 08:02:46;;;;;;;5.65;3.25;;;;;;;25.20;38.83;101167.44;4919999;29;20060;-78
2023/06/03 08:05:15;;;;;;;7.97;3.15;;;;;;;25.58;38.69;101164.09;4922037;29;20052;-78
2023/06/03 08:07:43;;;;;;;6.18;3.10;;;;;;;25.89;38.89;101173.50;4920565;29;20083;-78
2023/06/03 08:10:21;;;;;;;8.85;3.15;;;;;;;26.32;36.87;101163.94;4919100;29;20056;-78
2023/06/03 08:12:48;;;;;;;6.40;3.15;;;;;;;25.38;38.00;101161.88;4918800;29;20079;-78
2023/06/03 08:15:25;;;;;;;4.50;3.10;;;;;;;26.60;37.53;101169.16;4922139;29;20051;-77
2023/06/03 08:17:52;;;;;;;5.90;3.20;;;;;;;23.81;40.14;101153.19;4908729;29;20044;-76
2023/06/03 08:20:23;;;;;;;7.13;3.05;;;;;;;25.04;40.28;101160.19;4915519;29;20134;-77
2023/06/03 08:22:51;;;;;;;7.35;3.58;;;;;;;26.12;39.04;101157.19;4915148;29;20052;-77
2023/06/03 08:25:19;;;;;;;6.38;2.95;;;;;;;25.76;38.55;101149.69;4915318;29;20056;-76
2023/06/03 08:27:45;;;;;;;6.88;3.35;;;;;;;24.74;39.18;101145.09;4915534;29;20784;-77
2023/06/03 08:30:14;;;;;;;5.18;3.90;;;;;;;24.92;38.87;101154.03;4915460;29;20055;-76
2023/06/03 08:32:41;;;;;;;6.13;3.50;;;;;;;24.99;39.93;101141.34;4915438;29;20815;-77
2023/06/03 08:35:12;;;;;;;10.77;4.40;;;;;;;24.17;40.19;101147.59;4916752;29;20063;-77
2023/06/03 08:37:39;;;;;;;6.85;3.38;;;;;;;24.52;40.40;101143.31;4915180;29;20134;-78
2023/06/03 08:40:08;;;;;;;3.78;3.00;;;;;;;24.67;40.42;101141.75;4915165;29;20465;-77
2023/06/03 08:42:40;;;;;;;5.50;3.30;;;;;;;23.61;41.55;101137.50;4914920;29;20185;-77
2023/06/03 08:45:07;;;;;;;;;;;;;;;23.73;40.62;101129.47;4915538;29;20135;-76
2023/06/03 08:47:41;;;;;;;7.38;3.30;;;;;;;24.39;40.68;101136.34;4913219;29;19927;-77
2023/06/03 08:50:10;;;;;;;6.65;3.45;;;;;;;24.84;39.40;101124.94;4913192;29;20048;-78
2023/06/03 08:52:39;;;;;;;4.63;2.95;;;;;;;23.59;41.33;101123.53;4913979;29;20052;-78
2023/06/03 08:55:07;;;;;;;4.78;3.53;;;;;;;22.91;41.70;101123.06;4915001;29;20099;-78
2023/06/03 08:57:36;;;;;;;9.32;3.75;;;;;;;23.63;41.21;101119.34;4915745;29;20071;-77
2023/06/03 09:00:06;;;;;;;5.97;3.72;;;;;;;24.23;40.72;101124.47;4915961;29;20056;-75
2023/06/03 09:02:34;;;;;;;8.50;4.10;;;;;;;24.11;40.96;101116.44;4917471;29;20055;-78
2023/06/03 09:05:03;;;;;;;7.40;4.13;;;;;;;23.48;41.24;101109.09;4917386;29;20052;-76
2023/06/03 09:07:32;;;;;;;5.40;3.50;;;;;;;23.23;42.05;101116.44;4917593;29;20524;-77
2023/06/03 09:10:01;;;;;;;6.35;3.70;;;;;;;22.77;42.56;101120.53;4922326;29;20060;-78
2023/06/03 09:12:28;;;;;;;7.22;3.47;;;;;;;23.81;41.42;101121.94;4918340;29;20054;-77
2023/06/03 09:14:55;;;;;;;6.18;3.60;;;;;;;23.68;40.73;101121.31;4916455;29;20427;-78
2023/06/03 09:17:25;;;;;;;6.53;3.60;;;;;;;24.67;40.06;101132.91;4918428;29;20139;-77
2023/06/03 09:19:54;;;;;;;5.45;3.40;;;;;;;24.85;39.44;101139.97;4918005;29;20060;-77
2023/06/03 09:22:22;;;;;;;9.10;3.80;;;;;;;24.85;39.52;101134.59;4916330;29;20582;-76
2023/06/03 09:24:49;;;;;;;9.57;4.00;;;;;;;24.12;39.99;101133.31;4920491;29;20112;-78
2023/06/03 09:27:16;;;;;;;5.00;3.38;;;;;;;23.66;40.17;101123.41;4918186;29;20071;-78
2023/06/03 09:29:43;;;;;;;6.57;3.45;;;;;;;23.93;39.67;101135.31;4917533;29;20076;-76
2023/06/03 09:32:09;;;;;;;5.88;3.45;;;;;;;23.87;40.26;101125.53;4916442;29;20131;-76
2023/06/03 09:34:37;;;;;;;8.13;3.60;;;;;;;23.99;40.41;101123.69;4916665;29;20140;-77
2023/06/03 09:37:08;;;;;;;7.75;3.92;;;;;;;23.63;40.01;101119.34;4917784;29;20156;-77
2023/06/03 09:39:36;;;;;;;7.57;3.42;;;;;;;23.70;40.30;101119.25;4916437;29;20075;-77
2023/06/03 09:42:03;;;;;;;7.20;3.50;;;;;;;23.32;41.21;101122.28;4916533;29;20052;-77
2023/06/03 09:44:39;;;;;;;6.13;3.50;;;;;;;23.90;40.37;101127.75;4917245;29;20500;-77
2023/06/03 09:47:06;;;;;;;6.15;3.80;;;;;;;23.26;40.43;101126.66;4917587;29;20057;-77
2023/06/03 09:49:34;;;;;;;4.15;3.38;;;;;;;23.21;40.80;101125.72;4921435;29;20130;-74
2023/06/03 09:52:06;;;;;;;6.57;3.80;;;;;;;23.22;41.02;101114.81;4916084;29;20048;-78
2023/06/03 09:54:33;;;;;;;;;;;;;;;23.63;40.87;101116.66;4917547;29;20059;-78
2023/06/03 09:57:13;;;;;;;5.65;3.88;;;;;;;23.94;40.21;101120.09;4919651;29;19959;-76
2023/06/03 10:00:04;;;;;;;8.27;3.97;;;;;;;23.64;40.41;101109.47;4919380;29;20062;-78
2023/06/03 10:02:30;;;;;;;5.22;3.90;;;;;;;23.70;40.96;101116.56;4919870;29;20052;-78
2023/06/03 10:05:01;;;;;;;5.95;3.75;;;;;;;22.53;41.71;101124.13;4925399;29;20160;-76
2023/06/03 10:07:30;;;;;;;8.35;3.90;;;;;;;22.57;41.81;101119.16;4918552;29;20055;-78
2023/06/03 10:10:04;;;;;;;6.22;4.00;;;;;;;22.83;41.38;101108.97;4918384;29;20103;-76
2023/06/03 10:12:33;;;;;;;8.30;4.10;;;;;;;22.68;41.04;101111.22;4915630;29;20048;-77
2023/06/03 10:16:02;;;;;;;5.60;3.60;;;;;;;22.41;41.48;101120.56;4917002;29;20051;-77
2023/06/03 10:21:45;;;;;;;6.18;4.05;;;;;;;22.86;41.38;101106.91;4890292;29;20115;-78
2023/06/03 10:24:15;;;;;;;7.30;3.97;;;;;;;23.07;40.63;101104.56;4918495;29;20055;-76
2023/06/03 10:26:42;;;;;;;6.55;3.90;;;;;;;22.98;41.27;101115.78;4919483;29;20063;-76
2023/06/03 10:29:08;;;;;;;5.80;3.70;;;;;;;22.89;41.50;101111.78;4917840;29;20052;-77
2023/06/03 10:31:35;;;;;;;7.03;3.95;;;;;;;22.98;41.54;101105.94;4916260;29;20139;-77
2023/06/03 10:34:04;;;;;;;5.70;3.60;;;;;;;23.19;41.42;101117.94;4916842;29;20060;-77
2023/06/03 10:36:31;;;;;;;6.28;3.88;;;;;;;23.07;41.51;101103.75;4916559;29;20077;-77
2023/06/03 10:39:02;;;;;;;6.13;3.75;;;;;;;23.40;42.06;101104.06;4917189;29;20472;-76
2023/06/03 10:41:30;;;;;;;6.82;3.70;;;;;;;23.47;41.35;101110.13;4917546;29;20044;-74
2023/06/03 10:43:57;;;;;;;8.35;4.18;;;;;;;23.10;41.05;101100.63;4916775;29;20529;-73
2023/06/03 10:46:24;;;;;;;6.30;3.90;;;;;;;23.39;41.23;101104.31;4916237;29;20499;-75
2023/06/03 10:48:51;;;;;;;4.40;3.47;;;;;;;23.07;40.96;101103.75;4916732;29;20142;-76
2023/06/03 10:51:33;;;;;;;8.20;3.50;;;;;;;23.04;41.44;101102.34;4916141;29;20055;-77
2023/06/03 10:54:16;;;;;;;6.55;3.80;;;;;;;23.38;40.86;101098.16;4916505;29;20135;-77
2023/06/03 10:56:51;;;;;;;7.32;4.43;;;;;;;23.65;41.73;101103.09;4916991;29;20111;-77
2023/06/03 10:59:21;;;;;;;10.60;4.75;;;;;;;23.12;41.05;101095.88;4916477;29;20139;-77
2023/06/03 11:01:59;;;;;;;6.28;3.70;;;;;;;23.44;41.11;101099.91;4919804;29;20124;-79
2023/06/03 11:04:27;;;;;;;6.05;3.90;;;;;;;23.74;40.50;101104.38;4922308;29;20078;-78
2023/06/03 11:06:54;;;;;;;6.95;4.07;;;;;;;23.59;40.63;101091.50;4920187;29;20052;-78
2023/06/03 11:09:35;;;;;;;6.78;4.07;;;;;;;24.16;40.63;101103.19;4919981;29;20052;-79
2023/06/03 11:12:14;;;;;;;5.78;3.80;;;;;;;24.06;40.20;101100.34;4920020;29;20143;-79
2023/06/03 11:14:56;;;;;;;8.20;3.72;;;;;;;23.30;40.94;101103.00;4921235;29;20056;-79
2023/06/03 11:17:24;;;;;;;8.55;4.70;;;;;;;23.44;40.73;101105.25;4918898;29;20108;-79
2023/06/03 11:19:54;;;;;;;6.25;3.92;;;;;;;23.21;40.69;101093.69;4916668;29;20056;-79
2023/06/03 11:22:54;;;;;;;6.95;4.00;;;;;;;23.43;41.19;101103.63;4920614;29;20060;-79
2023/06/03 11:25:31;;;;;;;9.10;3.85;;;;;;;23.15;40.86;101098.91;4862790;29;20084;-79
2023/06/03 11:28:34;;;;;;;6.80;3.97;;;;;;;23.53;41.26;101097.75;4862266;29;20050;-79
2023/06/03 11:31:03;;;;;;;8.85;4.32;;;;;;;23.77;40.54;101096.72;4895385;29;20048;-80
2023/06/03 11:33:30;;;;;;;6.53;4.50;;;;;;;24.42;39.81;101090.41;4920117;29;20056;-79
2023/06/03 11:35:57;;;;;;;6.60;3.63;;;;;;;23.97;40.24;101099.03;4920556;29;20131;-79
2023/06/03 11:38:57;;;;;;;5.25;3.80;;;;;;;23.82;39.63;101101.38;4918624;29;20406;-77
2023/06/03 11:41:54;;;;;;;7.60;4.10;;;;;;;23.94;40.25;101094.16;4913260;29;20131;-78
2023/06/03 11:44:22;;;;;;;8.35;4.18;;;;;;;24.65;39.85;101101.03;4916192;29;20087;-78
2023/06/03 11:46:52;;;;;;;6.57;3.28;;;;;;;24.02;39.57;101088.47;4919105;29;20066;-78
2023/06/03 11:49:21;;;;;;;9.68;3.95;;;;;;;23.60;40.41;101078.94;4923002;29;20059;-79
2023/06/03 11:51:51;;;;;;;6.85;3.65;;;;;;;23.75;40.15;101090.78;4917750;29;20508;-78